sensor_id;sensor_type;location;lat;lon;timestamp;P1;durP1;ratioP1;P2;durP2;ratioP2
5876;SDS011;2964;42.144;24.730;2024-03-02T00:00:18;49.73;;;25.97;;
5876;SDS011;2964;42.144;24.730;2024-03-02T00:02:47;47.13;;;26.70;;
5876;SDS011;2964;42.144;24.730;2024-03-02T00:05:15;49.00;;;27.20;;
5876;SDS011;2964;42.144;24.730;2024-03-02T00:07:43;58.73;;;28.80;;
5876;SDS011;2964;42.144;24.730;2024-03-02T00:10:14;53.13;;;27.53;;
5876;SDS011;2964;42.144;24.730;2024-03-02T00:12:45;52.87;;;28.80;;
5876;SDS011;2964;42.144;24.730;2024-03-02T00:15:30;47.60;;;26.93;;
5876;SDS011;2964;42.144;24.730;2024-03-02T00:18:07;51.00;;;27.03;;
5876;SDS011;2964;42.144;24.730;2024-03-02T00:20:36;55.47;;;27.47;;
5876;SDS011;2964;42.144;24.730;2024-03-02T00:23:04;52.70;;;27.10;;
5876;SDS011;2964;42.144;24.730;2024-03-02T00:25:40;54.07;;;28.13;;
5876;SDS011;2964;42.144;24.730;2024-03-02T00:28:16;57.20;;;29.83;;
5876;SDS011;2964;42.144;24.730;2024-03-02T00:33:26;57.83;;;28.70;;
5876;SDS011;2964;42.144;24.730;2024-03-02T00:35:54;56.97;;;29.40;;
5876;SDS011;2964;42.144;24.730;2024-03-02T00:38:21;58.60;;;28.67;;
5876;SDS011;2964;42.144;24.730;2024-03-02T00:40:50;56.67;;;29.77;;
5876;SDS011;2964;42.144;24.730;2024-03-02T00:46:09;65.00;;;29.43;;
5876;SDS011;2964;42.144;24.730;2024-03-02T00:48:44;63.90;;;30.33;;
5876;SDS011;2964;42.144;24.730;2024-03-02T00:51:22;60.23;;;31.23;;
5876;SDS011;2964;42.144;24.730;2024-03-02T00:53:51;63.97;;;30.53;;
5876;SDS011;2964;42.144;24.730;2024-03-02T00:56:22;65.63;;;31.70;;
5876;SDS011;2964;42.144;24.730;2024-03-02T00:58:49;63.40;;;30.60;;
5876;SDS011;2964;42.144;24.730;2024-03-02T01:01:17;66.10;;;30.40;;
5876;SDS011;2964;42.144;24.730;2024-03-02T01:03:44;66.47;;;31.93;;
5876;SDS011;2964;42.144;24.730;2024-03-02T01:06:11;66.30;;;31.33;;
5876;SDS011;2964;42.144;24.730;2024-03-02T01:08:39;68.30;;;31.90;;
5876;SDS011;2964;42.144;24.730;2024-03-02T01:11:05;71.10;;;32.67;;
5876;SDS011;2964;42.144;24.730;2024-03-02T01:13:33;68.53;;;32.37;;
5876;SDS011;2964;42.144;24.730;2024-03-02T01:16:00;75.67;;;34.93;;
5876;SDS011;2964;42.144;24.730;2024-03-02T01:18:27;82.00;;;33.63;;
5876;SDS011;2964;42.144;24.730;2024-03-02T01:20:54;89.47;;;35.83;;
5876;SDS011;2964;42.144;24.730;2024-03-02T01:23:21;77.83;;;35.27;;
5876;SDS011;2964;42.144;24.730;2024-03-02T01:25:48;78.67;;;34.17;;
5876;SDS011;2964;42.144;24.730;2024-03-02T01:28:15;78.17;;;32.80;;
5876;SDS011;2964;42.144;24.730;2024-03-02T01:30:43;75.10;;;32.20;;
5876;SDS011;2964;42.144;24.730;2024-03-02T01:33:10;80.77;;;34.60;;
5876;SDS011;2964;42.144;24.730;2024-03-02T01:35:37;76.33;;;30.87;;
5876;SDS011;2964;42.144;24.730;2024-03-02T01:38:04;88.57;;;35.07;;
5876;SDS011;2964;42.144;24.730;2024-03-02T01:40:32;94.37;;;36.50;;
5876;SDS011;2964;42.144;24.730;2024-03-02T01:42:59;101.60;;;38.37;;
5876;SDS011;2964;42.144;24.730;2024-03-02T01:45:27;93.57;;;35.40;;
5876;SDS011;2964;42.144;24.730;2024-03-02T01:47:55;103.87;;;38.93;;
5876;SDS011;2964;42.144;24.730;2024-03-02T01:50:26;101.60;;;37.90;;
5876;SDS011;2964;42.144;24.730;2024-03-02T01:52:53;100.20;;;37.67;;
5876;SDS011;2964;42.144;24.730;2024-03-02T01:55:20;94.03;;;34.90;;
5876;SDS011;2964;42.144;24.730;2024-03-02T01:57:47;108.77;;;37.37;;
5876;SDS011;2964;42.144;24.730;2024-03-02T02:00:15;103.90;;;37.53;;
5876;SDS011;2964;42.144;24.730;2024-03-02T02:02:43;108.67;;;36.60;;
5876;SDS011;2964;42.144;24.730;2024-03-02T02:05:11;94.70;;;36.80;;
5876;SDS011;2964;42.144;24.730;2024-03-02T02:07:39;110.80;;;37.13;;
5876;SDS011;2964;42.144;24.730;2024-03-02T02:10:06;97.47;;;35.73;;
5876;SDS011;2964;42.144;24.730;2024-03-02T02:12:34;90.47;;;36.70;;
5876;SDS011;2964;42.144;24.730;2024-03-02T02:15:01;88.37;;;35.70;;
5876;SDS011;2964;42.144;24.730;2024-03-02T02:17:27;90.47;;;33.90;;
5876;SDS011;2964;42.144;24.730;2024-03-02T02:19:54;81.83;;;33.97;;
5876;SDS011;2964;42.144;24.730;2024-03-02T02:22:22;75.07;;;32.47;;
5876;SDS011;2964;42.144;24.730;2024-03-02T02:24:49;75.17;;;31.53;;
5876;SDS011;2964;42.144;24.730;2024-03-02T02:27:16;74.20;;;31.43;;
5876;SDS011;2964;42.144;24.730;2024-03-02T02:29:42;65.93;;;31.20;;
5876;SDS011;2964;42.144;24.730;2024-03-02T02:32:09;63.37;;;29.57;;
5876;SDS011;2964;42.144;24.730;2024-03-02T02:34:36;65.03;;;30.73;;
5876;SDS011;2964;42.144;24.730;2024-03-02T02:37:02;54.83;;;27.37;;
5876;SDS011;2964;42.144;24.730;2024-03-02T02:39:30;61.20;;;28.80;;
5876;SDS011;2964;42.144;24.730;2024-03-02T02:41:57;62.80;;;29.40;;
5876;SDS011;2964;42.144;24.730;2024-03-02T02:44:26;68.63;;;29.83;;
5876;SDS011;2964;42.144;24.730;2024-03-02T02:46:52;60.90;;;31.03;;
5876;SDS011;2964;42.144;24.730;2024-03-02T02:49:19;61.73;;;28.20;;
5876;SDS011;2964;42.144;24.730;2024-03-02T02:51:46;56.83;;;28.73;;
5876;SDS011;2964;42.144;24.730;2024-03-02T02:54:12;63.40;;;28.83;;
5876;SDS011;2964;42.144;24.730;2024-03-02T02:56:40;67.50;;;31.50;;
5876;SDS011;2964;42.144;24.730;2024-03-02T02:59:07;70.83;;;30.77;;
5876;SDS011;2964;42.144;24.730;2024-03-02T03:01:34;62.90;;;30.80;;
5876;SDS011;2964;42.144;24.730;2024-03-02T03:04:00;58.43;;;28.13;;
5876;SDS011;2964;42.144;24.730;2024-03-02T03:06:27;67.00;;;30.57;;
5876;SDS011;2964;42.144;24.730;2024-03-02T03:08:54;63.90;;;28.33;;
5876;SDS011;2964;42.144;24.730;2024-03-02T03:11:20;61.03;;;28.37;;
5876;SDS011;2964;42.144;24.730;2024-03-02T03:13:49;55.20;;;28.97;;
5876;SDS011;2964;42.144;24.730;2024-03-02T03:16:15;62.63;;;29.53;;
5876;SDS011;2964;42.144;24.730;2024-03-02T03:18:42;65.20;;;29.17;;
5876;SDS011;2964;42.144;24.730;2024-03-02T03:21:09;70.10;;;30.50;;
5876;SDS011;2964;42.144;24.730;2024-03-02T03:23:36;77.87;;;29.10;;
5876;SDS011;2964;42.144;24.730;2024-03-02T03:26:03;62.93;;;30.83;;
5876;SDS011;2964;42.144;24.730;2024-03-02T03:28:29;63.10;;;28.67;;
5876;SDS011;2964;42.144;24.730;2024-03-02T03:30:57;57.03;;;28.63;;
5876;SDS011;2964;42.144;24.730;2024-03-02T03:33:24;56.67;;;27.57;;
5876;SDS011;2964;42.144;24.730;2024-03-02T03:35:51;55.47;;;28.10;;
5876;SDS011;2964;42.144;24.730;2024-03-02T03:38:18;57.23;;;26.57;;
5876;SDS011;2964;42.144;24.730;2024-03-02T03:40:45;48.03;;;27.60;;
5876;SDS011;2964;42.144;24.730;2024-03-02T03:43:12;58.27;;;27.93;;
5876;SDS011;2964;42.144;24.730;2024-03-02T03:45:39;60.00;;;29.40;;
5876;SDS011;2964;42.144;24.730;2024-03-02T03:48:07;58.13;;;28.70;;
5876;SDS011;2964;42.144;24.730;2024-03-02T03:50:34;60.63;;;29.17;;
5876;SDS011;2964;42.144;24.730;2024-03-02T03:53:01;56.63;;;27.33;;
5876;SDS011;2964;42.144;24.730;2024-03-02T03:55:27;59.60;;;28.43;;
5876;SDS011;2964;42.144;24.730;2024-03-02T03:57:54;60.93;;;30.47;;
5876;SDS011;2964;42.144;24.730;2024-03-02T04:00:21;50.17;;;26.17;;
5876;SDS011;2964;42.144;24.730;2024-03-02T04:02:48;61.13;;;30.23;;
5876;SDS011;2964;42.144;24.730;2024-03-02T04:05:16;67.77;;;30.40;;
5876;SDS011;2964;42.144;24.730;2024-03-02T04:07:42;61.33;;;29.80;;
5876;SDS011;2964;42.144;24.730;2024-03-02T04:10:09;63.10;;;29.47;;
5876;SDS011;2964;42.144;24.730;2024-03-02T04:12:37;60.60;;;30.07;;
5876;SDS011;2964;42.144;24.730;2024-03-02T04:15:04;62.30;;;28.70;;
5876;SDS011;2964;42.144;24.730;2024-03-02T04:17:32;58.03;;;27.07;;
5876;SDS011;2964;42.144;24.730;2024-03-02T04:19:58;58.37;;;29.40;;
5876;SDS011;2964;42.144;24.730;2024-03-02T04:22:27;61.07;;;29.57;;
5876;SDS011;2964;42.144;24.730;2024-03-02T04:24:53;52.53;;;28.50;;
5876;SDS011;2964;42.144;24.730;2024-03-02T04:27:20;56.67;;;29.40;;
5876;SDS011;2964;42.144;24.730;2024-03-02T04:29:47;60.03;;;25.30;;
5876;SDS011;2964;42.144;24.730;2024-03-02T04:32:13;61.17;;;29.67;;
5876;SDS011;2964;42.144;24.730;2024-03-02T04:34:40;58.30;;;27.77;;
5876;SDS011;2964;42.144;24.730;2024-03-02T04:37:07;59.80;;;28.20;;
5876;SDS011;2964;42.144;24.730;2024-03-02T04:39:35;62.03;;;27.63;;
5876;SDS011;2964;42.144;24.730;2024-03-02T04:42:02;77.43;;;32.57;;
5876;SDS011;2964;42.144;24.730;2024-03-02T04:44:29;70.43;;;31.33;;
5876;SDS011;2964;42.144;24.730;2024-03-02T04:46:56;71.80;;;30.23;;
5876;SDS011;2964;42.144;24.730;2024-03-02T04:49:23;70.33;;;30.40;;
5876;SDS011;2964;42.144;24.730;2024-03-02T04:51:49;65.57;;;29.00;;
5876;SDS011;2964;42.144;24.730;2024-03-02T04:54:16;70.57;;;29.73;;
5876;SDS011;2964;42.144;24.730;2024-03-02T04:56:44;76.47;;;30.13;;
5876;SDS011;2964;42.144;24.730;2024-03-02T04:59:14;71.10;;;29.80;;
5876;SDS011;2964;42.144;24.730;2024-03-02T05:01:42;71.03;;;29.97;;
5876;SDS011;2964;42.144;24.730;2024-03-02T05:04:08;66.80;;;29.23;;
5876;SDS011;2964;42.144;24.730;2024-03-02T05:06:36;67.40;;;28.37;;
5876;SDS011;2964;42.144;24.730;2024-03-02T05:09:04;68.67;;;30.00;;
5876;SDS011;2964;42.144;24.730;2024-03-02T05:11:30;59.83;;;27.67;;
5876;SDS011;2964;42.144;24.730;2024-03-02T05:14:19;65.80;;;28.60;;
5876;SDS011;2964;42.144;24.730;2024-03-02T05:16:45;68.87;;;29.23;;
5876;SDS011;2964;42.144;24.730;2024-03-02T05:19:12;65.23;;;29.07;;
5876;SDS011;2964;42.144;24.730;2024-03-02T05:21:38;63.53;;;26.07;;
5876;SDS011;2964;42.144;24.730;2024-03-02T05:24:05;68.47;;;29.13;;
5876;SDS011;2964;42.144;24.730;2024-03-02T05:26:32;57.80;;;26.90;;
5876;SDS011;2964;42.144;24.730;2024-03-02T05:28:58;57.70;;;25.50;;
5876;SDS011;2964;42.144;24.730;2024-03-02T05:31:26;56.27;;;25.77;;
5876;SDS011;2964;42.144;24.730;2024-03-02T05:33:53;54.97;;;26.93;;
5876;SDS011;2964;42.144;24.730;2024-03-02T05:36:20;45.33;;;22.33;;
5876;SDS011;2964;42.144;24.730;2024-03-02T05:38:46;58.37;;;27.47;;
5876;SDS011;2964;42.144;24.730;2024-03-02T05:41:13;49.37;;;25.03;;
5876;SDS011;2964;42.144;24.730;2024-03-02T05:43:40;56.37;;;25.20;;
5876;SDS011;2964;42.144;24.730;2024-03-02T05:46:07;59.03;;;24.90;;
5876;SDS011;2964;42.144;24.730;2024-03-02T05:48:35;45.87;;;23.70;;
5876;SDS011;2964;42.144;24.730;2024-03-02T05:51:01;57.20;;;26.00;;
5876;SDS011;2964;42.144;24.730;2024-03-02T05:53:28;57.90;;;26.57;;
5876;SDS011;2964;42.144;24.730;2024-03-02T05:55:55;59.63;;;26.30;;
5876;SDS011;2964;42.144;24.730;2024-03-02T05:58:21;57.37;;;25.40;;
5876;SDS011;2964;42.144;24.730;2024-03-02T06:00:59;53.17;;;25.03;;
5876;SDS011;2964;42.144;24.730;2024-03-02T06:03:25;55.63;;;26.43;;
5876;SDS011;2964;42.144;24.730;2024-03-02T06:05:54;56.63;;;27.17;;
5876;SDS011;2964;42.144;24.730;2024-03-02T06:08:21;47.57;;;24.13;;
5876;SDS011;2964;42.144;24.730;2024-03-02T06:10:48;49.87;;;25.40;;
5876;SDS011;2964;42.144;24.730;2024-03-02T06:13:14;43.40;;;22.83;;
5876;SDS011;2964;42.144;24.730;2024-03-02T06:15:41;48.10;;;23.87;;
5876;SDS011;2964;42.144;24.730;2024-03-02T06:18:08;49.70;;;23.93;;
5876;SDS011;2964;42.144;24.730;2024-03-02T06:20:35;40.20;;;21.70;;
5876;SDS011;2964;42.144;24.730;2024-03-02T06:23:03;38.70;;;20.67;;
5876;SDS011;2964;42.144;24.730;2024-03-02T06:25:30;45.03;;;20.27;;
5876;SDS011;2964;42.144;24.730;2024-03-02T06:27:57;43.37;;;22.03;;
5876;SDS011;2964;42.144;24.730;2024-03-02T06:30:23;42.07;;;23.13;;
5876;SDS011;2964;42.144;24.730;2024-03-02T06:32:50;43.07;;;22.03;;
5876;SDS011;2964;42.144;24.730;2024-03-02T06:35:17;43.00;;;21.60;;
5876;SDS011;2964;42.144;24.730;2024-03-02T06:37:43;35.97;;;19.87;;
5876;SDS011;2964;42.144;24.730;2024-03-02T06:40:15;33.33;;;20.20;;
5876;SDS011;2964;42.144;24.730;2024-03-02T06:42:41;37.23;;;20.30;;
5876;SDS011;2964;42.144;24.730;2024-03-02T06:45:08;33.10;;;19.37;;
5876;SDS011;2964;42.144;24.730;2024-03-02T06:47:35;30.07;;;17.13;;
5876;SDS011;2964;42.144;24.730;2024-03-02T06:50:02;33.67;;;17.43;;
5876;SDS011;2964;42.144;24.730;2024-03-02T06:52:29;34.47;;;18.93;;
5876;SDS011;2964;42.144;24.730;2024-03-02T06:54:56;34.93;;;19.53;;
5876;SDS011;2964;42.144;24.730;2024-03-02T06:57:24;36.90;;;20.27;;
5876;SDS011;2964;42.144;24.730;2024-03-02T06:59:50;24.80;;;16.43;;
5876;SDS011;2964;42.144;24.730;2024-03-02T07:02:19;31.80;;;19.17;;
5876;SDS011;2964;42.144;24.730;2024-03-02T07:04:48;34.20;;;21.27;;
5876;SDS011;2964;42.144;24.730;2024-03-02T07:07:16;35.57;;;20.30;;
5876;SDS011;2964;42.144;24.730;2024-03-02T07:09:43;37.80;;;20.53;;
5876;SDS011;2964;42.144;24.730;2024-03-02T07:12:09;41.23;;;20.83;;
5876;SDS011;2964;42.144;24.730;2024-03-02T07:14:37;39.40;;;21.80;;
5876;SDS011;2964;42.144;24.730;2024-03-02T07:17:27;47.67;;;22.73;;
5876;SDS011;2964;42.144;24.730;2024-03-02T07:19:53;42.97;;;22.10;;
5876;SDS011;2964;42.144;24.730;2024-03-02T07:22:20;34.73;;;21.50;;
5876;SDS011;2964;42.144;24.730;2024-03-02T07:24:47;45.23;;;21.97;;
5876;SDS011;2964;42.144;24.730;2024-03-02T07:27:14;41.20;;;22.13;;
5876;SDS011;2964;42.144;24.730;2024-03-02T07:29:43;45.30;;;20.67;;
5876;SDS011;2964;42.144;24.730;2024-03-02T07:32:10;36.37;;;20.33;;
5876;SDS011;2964;42.144;24.730;2024-03-02T07:34:37;37.47;;;22.10;;
5876;SDS011;2964;42.144;24.730;2024-03-02T07:37:03;40.53;;;23.17;;
5876;SDS011;2964;42.144;24.730;2024-03-02T07:39:30;42.03;;;21.83;;
5876;SDS011;2964;42.144;24.730;2024-03-02T07:41:57;37.50;;;20.80;;
5876;SDS011;2964;42.144;24.730;2024-03-02T07:44:24;36.60;;;21.50;;
5876;SDS011;2964;42.144;24.730;2024-03-02T07:46:52;42.63;;;21.43;;
5876;SDS011;2964;42.144;24.730;2024-03-02T07:49:19;40.77;;;22.63;;
5876;SDS011;2964;42.144;24.730;2024-03-02T07:51:45;36.83;;;21.03;;
5876;SDS011;2964;42.144;24.730;2024-03-02T07:54:12;37.47;;;20.63;;
5876;SDS011;2964;42.144;24.730;2024-03-02T07:56:39;33.27;;;19.00;;
5876;SDS011;2964;42.144;24.730;2024-03-02T07:59:05;33.83;;;20.13;;
5876;SDS011;2964;42.144;24.730;2024-03-02T08:01:32;31.13;;;19.20;;
5876;SDS011;2964;42.144;24.730;2024-03-02T08:04:01;30.33;;;19.70;;
5876;SDS011;2964;42.144;24.730;2024-03-02T08:06:29;39.17;;;19.80;;
5876;SDS011;2964;42.144;24.730;2024-03-02T08:08:56;35.73;;;21.50;;
5876;SDS011;2964;42.144;24.730;2024-03-02T08:11:24;36.50;;;20.83;;
5876;SDS011;2964;42.144;24.730;2024-03-02T08:13:52;35.63;;;19.53;;
5876;SDS011;2964;42.144;24.730;2024-03-02T08:16:20;39.60;;;20.80;;
5876;SDS011;2964;42.144;24.730;2024-03-02T08:18:47;41.47;;;20.90;;
5876;SDS011;2964;42.144;24.730;2024-03-02T08:21:15;32.23;;;20.47;;
5876;SDS011;2964;42.144;24.730;2024-03-02T08:23:43;33.60;;;20.43;;
5876;SDS011;2964;42.144;24.730;2024-03-02T08:26:10;35.07;;;20.47;;
5876;SDS011;2964;42.144;24.730;2024-03-02T08:28:37;41.83;;;21.83;;
5876;SDS011;2964;42.144;24.730;2024-03-02T08:31:05;35.93;;;20.60;;
5876;SDS011;2964;42.144;24.730;2024-03-02T08:33:32;39.63;;;21.27;;
5876;SDS011;2964;42.144;24.730;2024-03-02T08:35:59;37.07;;;21.37;;
5876;SDS011;2964;42.144;24.730;2024-03-02T08:38:27;35.87;;;19.60;;
5876;SDS011;2964;42.144;24.730;2024-03-02T08:40:54;34.33;;;21.40;;
5876;SDS011;2964;42.144;24.730;2024-03-02T08:43:21;35.03;;;20.80;;
5876;SDS011;2964;42.144;24.730;2024-03-02T08:45:48;32.17;;;21.40;;
5876;SDS011;2964;42.144;24.730;2024-03-02T08:48:16;41.80;;;22.77;;
5876;SDS011;2964;42.144;24.730;2024-03-02T08:50:42;34.07;;;20.60;;
5876;SDS011;2964;42.144;24.730;2024-03-02T08:53:09;34.57;;;21.20;;
5876;SDS011;2964;42.144;24.730;2024-03-02T08:55:37;38.57;;;22.43;;
5876;SDS011;2964;42.144;24.730;2024-03-02T08:58:04;39.00;;;22.17;;
5876;SDS011;2964;42.144;24.730;2024-03-02T09:00:32;44.00;;;21.40;;
5876;SDS011;2964;42.144;24.730;2024-03-02T09:02:58;40.10;;;22.73;;
5876;SDS011;2964;42.144;24.730;2024-03-02T09:05:25;48.17;;;23.33;;
5876;SDS011;2964;42.144;24.730;2024-03-02T09:07:52;42.57;;;22.30;;
5876;SDS011;2964;42.144;24.730;2024-03-02T09:10:18;37.60;;;21.00;;
5876;SDS011;2964;42.144;24.730;2024-03-02T09:12:46;41.87;;;21.37;;
5876;SDS011;2964;42.144;24.730;2024-03-02T09:15:13;47.27;;;23.13;;
5876;SDS011;2964;42.144;24.730;2024-03-02T09:17:40;47.57;;;24.03;;
5876;SDS011;2964;42.144;24.730;2024-03-02T09:20:07;47.67;;;23.30;;
5876;SDS011;2964;42.144;24.730;2024-03-02T09:22:34;49.63;;;24.40;;
5876;SDS011;2964;42.144;24.730;2024-03-02T09:25:01;47.53;;;24.27;;
5876;SDS011;2964;42.144;24.730;2024-03-02T09:27:28;51.87;;;25.53;;
5876;SDS011;2964;42.144;24.730;2024-03-02T09:29:56;44.57;;;24.43;;
5876;SDS011;2964;42.144;24.730;2024-03-02T09:32:23;47.27;;;23.37;;
5876;SDS011;2964;42.144;24.730;2024-03-02T09:34:50;36.50;;;22.30;;
5876;SDS011;2964;42.144;24.730;2024-03-02T09:37:18;45.93;;;23.90;;
5876;SDS011;2964;42.144;24.730;2024-03-02T09:39:45;49.73;;;26.17;;
5876;SDS011;2964;42.144;24.730;2024-03-02T09:42:12;48.37;;;23.90;;
5876;SDS011;2964;42.144;24.730;2024-03-02T09:44:39;56.40;;;26.77;;
5876;SDS011;2964;42.144;24.730;2024-03-02T09:47:08;67.07;;;30.60;;
5876;SDS011;2964;42.144;24.730;2024-03-02T09:49:34;68.37;;;31.67;;
5876;SDS011;2964;42.144;24.730;2024-03-02T09:52:01;46.17;;;24.83;;
5876;SDS011;2964;42.144;24.730;2024-03-02T09:54:32;58.10;;;28.73;;
5876;SDS011;2964;42.144;24.730;2024-03-02T09:56:59;48.97;;;26.17;;
5876;SDS011;2964;42.144;24.730;2024-03-02T09:59:26;51.00;;;26.87;;
5876;SDS011;2964;42.144;24.730;2024-03-02T10:01:57;50.57;;;25.83;;
5876;SDS011;2964;42.144;24.730;2024-03-02T10:04:27;42.47;;;24.33;;
5876;SDS011;2964;42.144;24.730;2024-03-02T10:07:14;43.17;;;23.70;;
5876;SDS011;2964;42.144;24.730;2024-03-02T10:09:42;52.53;;;25.53;;
5876;SDS011;2964;42.144;24.730;2024-03-02T10:12:10;41.73;;;23.87;;
5876;SDS011;2964;42.144;24.730;2024-03-02T10:14:37;50.97;;;26.03;;
5876;SDS011;2964;42.144;24.730;2024-03-02T10:17:05;48.47;;;24.87;;
5876;SDS011;2964;42.144;24.730;2024-03-02T10:19:34;52.37;;;24.83;;
5876;SDS011;2964;42.144;24.730;2024-03-02T10:22:02;42.43;;;25.33;;
5876;SDS011;2964;42.144;24.730;2024-03-02T10:24:35;43.60;;;25.80;;
5876;SDS011;2964;42.144;24.730;2024-03-02T10:27:06;48.63;;;25.00;;
5876;SDS011;2964;42.144;24.730;2024-03-02T10:29:36;43.07;;;24.33;;
5876;SDS011;2964;42.144;24.730;2024-03-02T10:32:04;43.70;;;24.83;;
5876;SDS011;2964;42.144;24.730;2024-03-02T10:34:33;40.37;;;25.17;;
5876;SDS011;2964;42.144;24.730;2024-03-02T10:37:01;42.60;;;25.37;;
5876;SDS011;2964;42.144;24.730;2024-03-02T10:39:28;46.40;;;25.23;;
5876;SDS011;2964;42.144;24.730;2024-03-02T10:41:56;37.37;;;23.17;;
5876;SDS011;2964;42.144;24.730;2024-03-02T10:44:24;35.30;;;21.47;;
5876;SDS011;2964;42.144;24.730;2024-03-02T10:46:52;31.60;;;20.37;;
5876;SDS011;2964;42.144;24.730;2024-03-02T10:49:21;28.67;;;20.93;;
5876;SDS011;2964;42.144;24.730;2024-03-02T10:51:50;34.23;;;21.73;;
5876;SDS011;2964;42.144;24.730;2024-03-02T10:54:17;29.17;;;20.33;;
5876;SDS011;2964;42.144;24.730;2024-03-02T10:56:51;28.90;;;21.13;;
5876;SDS011;2964;42.144;24.730;2024-03-02T10:59:21;32.67;;;20.73;;
5876;SDS011;2964;42.144;24.730;2024-03-02T11:01:54;32.07;;;22.17;;
5876;SDS011;2964;42.144;24.730;2024-03-02T11:04:23;33.73;;;21.93;;
5876;SDS011;2964;42.144;24.730;2024-03-02T11:06:54;28.77;;;21.83;;
5876;SDS011;2964;42.144;24.730;2024-03-02T11:09:27;33.13;;;23.13;;
5876;SDS011;2964;42.144;24.730;2024-03-02T11:11:57;31.50;;;22.13;;
5876;SDS011;2964;42.144;24.730;2024-03-02T11:14:29;33.97;;;22.90;;
5876;SDS011;2964;42.144;24.730;2024-03-02T11:16:58;36.77;;;25.23;;
5876;SDS011;2964;42.144;24.730;2024-03-02T11:19:26;42.10;;;26.50;;
5876;SDS011;2964;42.144;24.730;2024-03-02T11:21:55;44.20;;;25.07;;
5876;SDS011;2964;42.144;24.730;2024-03-02T11:24:29;41.77;;;26.77;;
5876;SDS011;2964;42.144;24.730;2024-03-02T11:26:59;40.10;;;25.97;;
5876;SDS011;2964;42.144;24.730;2024-03-02T11:29:42;43.37;;;26.03;;
5876;SDS011;2964;42.144;24.730;2024-03-02T11:32:13;34.87;;;24.07;;
5876;SDS011;2964;42.144;24.730;2024-03-02T11:34:41;35.37;;;24.97;;
5876;SDS011;2964;42.144;24.730;2024-03-02T11:37:12;36.00;;;24.33;;
5876;SDS011;2964;42.144;24.730;2024-03-02T11:39:40;38.03;;;25.87;;
5876;SDS011;2964;42.144;24.730;2024-03-02T11:42:07;41.93;;;25.03;;
5876;SDS011;2964;42.144;24.730;2024-03-02T11:44:34;32.33;;;22.63;;
5876;SDS011;2964;42.144;24.730;2024-03-02T11:47:02;31.87;;;22.30;;
5876;SDS011;2964;42.144;24.730;2024-03-02T11:49:38;34.60;;;23.77;;
5876;SDS011;2964;42.144;24.730;2024-03-02T11:52:07;36.00;;;23.40;;
5876;SDS011;2964;42.144;24.730;2024-03-02T11:54:36;33.90;;;23.93;;
5876;SDS011;2964;42.144;24.730;2024-03-02T11:57:05;26.37;;;21.53;;
5876;SDS011;2964;42.144;24.730;2024-03-02T11:59:32;32.20;;;22.53;;
5876;SDS011;2964;42.144;24.730;2024-03-02T12:01:58;29.77;;;22.17;;
5876;SDS011;2964;42.144;24.730;2024-03-02T12:04:27;26.13;;;21.73;;
5876;SDS011;2964;42.144;24.730;2024-03-02T12:06:56;28.67;;;22.07;;
5876;SDS011;2964;42.144;24.730;2024-03-02T12:09:25;26.33;;;21.60;;
5876;SDS011;2964;42.144;24.730;2024-03-02T12:14:49;24.33;;;19.27;;
5876;SDS011;2964;42.144;24.730;2024-03-02T12:17:17;28.10;;;21.67;;
5876;SDS011;2964;42.144;24.730;2024-03-02T12:19:44;26.57;;;20.97;;
5876;SDS011;2964;42.144;24.730;2024-03-02T12:22:11;31.63;;;24.13;;
5876;SDS011;2964;42.144;24.730;2024-03-02T12:24:38;30.67;;;22.60;;
5876;SDS011;2964;42.144;24.730;2024-03-02T12:27:04;28.67;;;22.73;;
5876;SDS011;2964;42.144;24.730;2024-03-02T12:29:33;29.17;;;23.13;;
5876;SDS011;2964;42.144;24.730;2024-03-02T12:32:00;31.57;;;23.00;;
5876;SDS011;2964;42.144;24.730;2024-03-02T12:34:28;28.23;;;22.63;;
5876;SDS011;2964;42.144;24.730;2024-03-02T12:36:54;24.83;;;20.60;;
5876;SDS011;2964;42.144;24.730;2024-03-02T12:39:21;27.20;;;21.57;;
5876;SDS011;2964;42.144;24.730;2024-03-02T12:41:48;28.67;;;21.93;;
5876;SDS011;2964;42.144;24.730;2024-03-02T12:44:16;27.20;;;22.70;;
5876;SDS011;2964;42.144;24.730;2024-03-02T12:46:44;32.17;;;24.37;;
5876;SDS011;2964;42.144;24.730;2024-03-02T12:49:12;28.73;;;22.20;;
5876;SDS011;2964;42.144;24.730;2024-03-02T12:51:41;25.67;;;21.63;;
5876;SDS011;2964;42.144;24.730;2024-03-02T12:54:08;29.23;;;24.10;;
5876;SDS011;2964;42.144;24.730;2024-03-02T12:56:36;29.87;;;23.50;;
5876;SDS011;2964;42.144;24.730;2024-03-02T12:59:03;29.30;;;23.43;;
5876;SDS011;2964;42.144;24.730;2024-03-02T13:01:30;29.10;;;23.30;;
5876;SDS011;2964;42.144;24.730;2024-03-02T13:03:58;38.67;;;26.03;;
5876;SDS011;2964;42.144;24.730;2024-03-02T13:06:25;39.83;;;26.83;;
5876;SDS011;2964;42.144;24.730;2024-03-02T13:08:54;35.03;;;25.23;;
5876;SDS011;2964;42.144;24.730;2024-03-02T13:11:21;32.37;;;25.30;;
5876;SDS011;2964;42.144;24.730;2024-03-02T13:13:49;34.90;;;24.33;;
5876;SDS011;2964;42.144;24.730;2024-03-02T13:16:16;35.03;;;24.17;;
5876;SDS011;2964;42.144;24.730;2024-03-02T13:18:45;36.00;;;25.47;;
5876;SDS011;2964;42.144;24.730;2024-03-02T13:21:13;33.17;;;26.27;;
5876;SDS011;2964;42.144;24.730;2024-03-02T13:23:40;33.50;;;25.70;;
5876;SDS011;2964;42.144;24.730;2024-03-02T13:26:06;35.67;;;27.00;;
5876;SDS011;2964;42.144;24.730;2024-03-02T13:28:35;32.57;;;24.27;;
5876;SDS011;2964;42.144;24.730;2024-03-02T13:31:03;31.83;;;26.00;;
5876;SDS011;2964;42.144;24.730;2024-03-02T13:33:30;34.33;;;26.23;;
5876;SDS011;2964;42.144;24.730;2024-03-02T13:35:58;31.77;;;23.97;;
5876;SDS011;2964;42.144;24.730;2024-03-02T13:38:26;33.27;;;24.70;;
5876;SDS011;2964;42.144;24.730;2024-03-02T13:40:52;34.10;;;24.53;;
5876;SDS011;2964;42.144;24.730;2024-03-02T13:43:19;32.20;;;25.87;;
5876;SDS011;2964;42.144;24.730;2024-03-02T13:45:46;36.77;;;25.13;;
5876;SDS011;2964;42.144;24.730;2024-03-02T13:48:13;31.87;;;25.30;;
5876;SDS011;2964;42.144;24.730;2024-03-02T13:50:40;32.30;;;24.97;;
5876;SDS011;2964;42.144;24.730;2024-03-02T13:53:07;28.27;;;22.93;;
5876;SDS011;2964;42.144;24.730;2024-03-02T13:55:35;32.37;;;24.73;;
5876;SDS011;2964;42.144;24.730;2024-03-02T13:58:03;30.80;;;22.17;;
5876;SDS011;2964;42.144;24.730;2024-03-02T14:00:30;25.23;;;21.30;;
5876;SDS011;2964;42.144;24.730;2024-03-02T14:02:57;22.30;;;19.83;;
5876;SDS011;2964;42.144;24.730;2024-03-02T14:05:24;22.30;;;18.57;;
5876;SDS011;2964;42.144;24.730;2024-03-02T14:07:50;21.40;;;19.13;;
5876;SDS011;2964;42.144;24.730;2024-03-02T14:10:17;21.07;;;18.87;;
5876;SDS011;2964;42.144;24.730;2024-03-02T14:12:48;24.73;;;18.93;;
5876;SDS011;2964;42.144;24.730;2024-03-02T14:15:15;24.20;;;19.97;;
5876;SDS011;2964;42.144;24.730;2024-03-02T14:17:41;21.57;;;18.77;;
5876;SDS011;2964;42.144;24.730;2024-03-02T14:20:08;23.27;;;18.87;;
5876;SDS011;2964;42.144;24.730;2024-03-02T14:22:37;26.93;;;20.80;;
5876;SDS011;2964;42.144;24.730;2024-03-02T14:25:04;22.57;;;19.77;;
5876;SDS011;2964;42.144;24.730;2024-03-02T14:27:31;22.73;;;19.67;;
5876;SDS011;2964;42.144;24.730;2024-03-02T14:30:00;23.33;;;20.23;;
5876;SDS011;2964;42.144;24.730;2024-03-02T14:32:26;25.03;;;20.50;;
5876;SDS011;2964;42.144;24.730;2024-03-02T14:34:53;27.67;;;20.57;;
5876;SDS011;2964;42.144;24.730;2024-03-02T14:37:20;32.53;;;23.40;;
5876;SDS011;2964;42.144;24.730;2024-03-02T14:39:47;27.27;;;20.30;;
5876;SDS011;2964;42.144;24.730;2024-03-02T14:42:14;28.63;;;20.47;;
5876;SDS011;2964;42.144;24.730;2024-03-02T14:44:41;28.67;;;20.93;;